Ma 2014. április 24., csütörtök, György napja van.
cheap cialis
 Fórum
Welcome Guest   [Register]  [Login]
  Vári Gyula fórum
Forums Topics Posts Last Post
A repülésről
0 0
 Board Statistics
Total Categories: 1 Total Forums: 1 Total Threads: 0 Total Posts: 0
Total Registered Users: 26 Latest Members: radjubarak  everxiao  Reaper  Szilágyi Éva  zolcat  

Powered by ccBoard

Események

Last month April 2014 Next month
M T W T F S S
week 14 1 2 3 4 5 6
week 15 7 8 9 10 11 12 13
week 16 14 15 16 17 18 19 20
week 17 21 22 23 24 25 26 27
week 18 28 29 30

Szavazás

Szeretnéd kipróbálni a műrepülést?

Igen - 100%
Nem - 0%

Total votes: 18
The voting for this poll has ended

Következik

Látogatói statisztika



54.2%Hungary Hungary
20.3%United States United States
3.1%Brazil Brazil
2.8%Russian Federation Russian Federation
2.1%Romania Romania
2.1%Germany Germany
2.1%Italy Italy
1.5%Ukraine Ukraine
1.2%Kuwait Kuwait
0.9%Austria Austria

Ma: 1
Tegnap: 4
A héten: 10
Múlt héten: 33
Ebben a hónapban: 110
Múlt hónapban: 176
Összesen: 420


Arcképcsarnok

WindFinder


forrás:windfinder.com

Elérhetőségeink

 
        
                           
 
Telefon:  +3620 777-9000
 
Email:        varigyula@varigyula.hu 
            
            
        
 

Aviation WX

[source: ADDS]
METAR
TAF LHKE 231945Z 2321/2406 VRB02MPS CAVOK BECMG 2321/2323 02003MPS PROB30 TEMPO 2403/2406 5000 BR SCT040 BKN200 TAF
TAF LHKE 231945Z 2321/2406 VRB02MPS CAVOK BECMG 2321/2323 02003MPS PROB30 TEMPO 2403/2406 5000 BR SCT040 BKN200 =